sensor_id;sensor_type;location;lat;lon;timestamp;P1;durP1;ratioP1;P2;durP2;ratioP2
52106;SDS011;38105;52.968;5.974;2023-02-28T00:00:45;77.77;;;25.10;;
52106;SDS011;38105;52.968;5.974;2023-02-28T00:03:11;73.60;;;24.70;;
52106;SDS011;38105;52.968;5.974;2023-02-28T00:05:36;75.00;;;24.70;;
52106;SDS011;38105;52.968;5.974;2023-02-28T00:08:02;75.60;;;24.90;;
52106;SDS011;38105;52.968;5.974;2023-02-28T00:10:29;73.27;;;24.60;;
52106;SDS011;38105;52.968;5.974;2023-02-28T00:13:00;73.47;;;24.53;;
52106;SDS011;38105;52.968;5.974;2023-02-28T00:15:27;74.10;;;24.73;;
52106;SDS011;38105;52.968;5.974;2023-02-28T00:17:53;74.47;;;24.77;;
52106;SDS011;38105;52.968;5.974;2023-02-28T00:20:19;74.10;;;24.63;;
52106;SDS011;38105;52.968;5.974;2023-02-28T00:22:46;75.77;;;25.00;;
52106;SDS011;38105;52.968;5.974;2023-02-28T00:25:14;74.57;;;24.73;;
52106;SDS011;38105;52.968;5.974;2023-02-28T00:27:42;74.10;;;24.70;;
52106;SDS011;38105;52.968;5.974;2023-02-28T00:30:09;75.80;;;25.03;;
52106;SDS011;38105;52.968;5.974;2023-02-28T00:32:37;75.73;;;24.93;;
52106;SDS011;38105;52.968;5.974;2023-02-28T00:35:03;73.30;;;24.63;;
52106;SDS011;38105;52.968;5.974;2023-02-28T00:37:29;71.73;;;24.40;;
52106;SDS011;38105;52.968;5.974;2023-02-28T00:39:55;71.97;;;24.47;;
52106;SDS011;38105;52.968;5.974;2023-02-28T00:42:21;71.53;;;24.30;;
52106;SDS011;38105;52.968;5.974;2023-02-28T00:44:47;71.07;;;24.20;;
52106;SDS011;38105;52.968;5.974;2023-02-28T00:47:12;72.00;;;24.33;;
52106;SDS011;38105;52.968;5.974;2023-02-28T00:49:38;72.23;;;24.47;;
52106;SDS011;38105;52.968;5.974;2023-02-28T00:52:04;71.23;;;24.30;;
52106;SDS011;38105;52.968;5.974;2023-02-28T00:54:29;70.07;;;24.00;;
52106;SDS011;38105;52.968;5.974;2023-02-28T00:56:55;71.87;;;24.33;;
52106;SDS011;38105;52.968;5.974;2023-02-28T00:59:21;72.00;;;24.43;;
52106;SDS011;38105;52.968;5.974;2023-02-28T01:01:46;72.03;;;24.47;;
52106;SDS011;38105;52.968;5.974;2023-02-28T01:04:13;70.40;;;24.23;;
52106;SDS011;38105;52.968;5.974;2023-02-28T01:06:39;68.10;;;23.90;;
52106;SDS011;38105;52.968;5.974;2023-02-28T01:09:06;67.03;;;23.77;;
52106;SDS011;38105;52.968;5.974;2023-02-28T01:11:33;64.65;;;23.63;;
52106;SDS011;38105;52.968;5.974;2023-02-28T01:13:59;65.22;;;23.52;;
52106;SDS011;38105;52.968;5.974;2023-02-28T01:16:26;66.40;;;23.60;;
52106;SDS011;38105;52.968;5.974;2023-02-28T01:18:52;68.73;;;23.93;;
52106;SDS011;38105;52.968;5.974;2023-02-28T01:21:19;70.00;;;24.13;;
52106;SDS011;38105;52.968;5.974;2023-02-28T01:23:46;71.40;;;24.30;;
52106;SDS011;38105;52.968;5.974;2023-02-28T01:26:21;71.10;;;24.43;;
52106;SDS011;38105;52.968;5.974;2023-02-28T01:28:48;70.83;;;24.33;;
52106;SDS011;38105;52.968;5.974;2023-02-28T01:31:15;69.67;;;24.13;;
52106;SDS011;38105;52.968;5.974;2023-02-28T01:33:41;69.77;;;24.13;;
52106;SDS011;38105;52.968;5.974;2023-02-28T01:36:09;68.60;;;24.03;;
52106;SDS011;38105;52.968;5.974;2023-02-28T01:38:40;69.23;;;24.07;;
52106;SDS011;38105;52.968;5.974;2023-02-28T01:41:06;69.70;;;24.23;;
52106;SDS011;38105;52.968;5.974;2023-02-28T01:46:07;66.80;;;23.77;;
52106;SDS011;38105;52.968;5.974;2023-02-28T01:48:38;69.50;;;24.10;;
52106;SDS011;38105;52.968;5.974;2023-02-28T01:51:08;68.83;;;23.87;;
52106;SDS011;38105;52.968;5.974;2023-02-28T01:53:39;69.23;;;24.10;;
52106;SDS011;38105;52.968;5.974;2023-02-28T01:56:09;70.53;;;24.03;;
52106;SDS011;38105;52.968;5.974;2023-02-28T01:58:37;68.87;;;24.00;;
52106;SDS011;38105;52.968;5.974;2023-02-28T02:01:03;69.28;;;24.17;;
52106;SDS011;38105;52.968;5.974;2023-02-28T02:03:29;67.40;;;23.83;;
52106;SDS011;38105;52.968;5.974;2023-02-28T02:05:56;68.05;;;23.98;;
52106;SDS011;38105;52.968;5.974;2023-02-28T02:08:23;69.05;;;24.38;;
52106;SDS011;38105;52.968;5.974;2023-02-28T02:10:52;67.77;;;24.10;;
52106;SDS011;38105;52.968;5.974;2023-02-28T02:13:25;67.13;;;23.85;;
52106;SDS011;38105;52.968;5.974;2023-02-28T02:26:26;61.22;;;23.15;;
52106;SDS011;38105;52.968;5.974;2023-02-28T02:29:21;61.60;;;23.10;;
52106;SDS011;38105;52.968;5.974;2023-02-28T02:31:56;58.80;;;22.63;;
52106;SDS011;38105;52.968;5.974;2023-02-28T02:37:19;55.15;;;22.20;;
52106;SDS011;38105;52.968;5.974;2023-02-28T02:39:59;56.67;;;22.30;;
52106;SDS011;38105;52.968;5.974;2023-02-28T02:45:11;57.25;;;22.30;;
52106;SDS011;38105;52.968;5.974;2023-02-28T02:47:42;57.92;;;22.55;;
52106;SDS011;38105;52.968;5.974;2023-02-28T02:50:14;58.03;;;22.42;;
52106;SDS011;38105;52.968;5.974;2023-02-28T02:52:55;58.45;;;22.50;;
52106;SDS011;38105;52.968;5.974;2023-02-28T02:55:24;58.78;;;22.67;;
52106;SDS011;38105;52.968;5.974;2023-02-28T02:57:55;59.08;;;22.73;;
52106;SDS011;38105;52.968;5.974;2023-02-28T03:00:39;59.25;;;22.70;;
52106;SDS011;38105;52.968;5.974;2023-02-28T03:03:11;59.67;;;22.65;;
52106;SDS011;38105;52.968;5.974;2023-02-28T03:05:41;60.22;;;22.92;;
52106;SDS011;38105;52.968;5.974;2023-02-28T03:08:11;61.10;;;23.05;;
52106;SDS011;38105;52.968;5.974;2023-02-28T03:10:38;60.97;;;22.95;;
52106;SDS011;38105;52.968;5.974;2023-02-28T03:18:25;61.30;;;23.00;;
52106;SDS011;38105;52.968;5.974;2023-02-28T03:21:11;61.22;;;22.88;;
52106;SDS011;38105;52.968;5.974;2023-02-28T03:24:08;60.72;;;22.90;;
52106;SDS011;38105;52.968;5.974;2023-02-28T03:26:43;60.85;;;23.05;;
52106;SDS011;38105;52.968;5.974;2023-02-28T03:32:02;60.53;;;22.80;;
52106;SDS011;38105;52.968;5.974;2023-02-28T03:34:37;60.92;;;22.85;;
52106;SDS011;38105;52.968;5.974;2023-02-28T03:37:09;60.53;;;22.92;;
52106;SDS011;38105;52.968;5.974;2023-02-28T03:39:43;61.50;;;23.00;;
52106;SDS011;38105;52.968;5.974;2023-02-28T03:42:15;61.58;;;23.10;;
52106;SDS011;38105;52.968;5.974;2023-02-28T03:47:15;61.17;;;23.02;;
52106;SDS011;38105;52.968;5.974;2023-02-28T03:49:53;60.15;;;22.65;;
52106;SDS011;38105;52.968;5.974;2023-02-28T03:52:25;60.30;;;22.80;;
52106;SDS011;38105;52.968;5.974;2023-02-28T03:54:56;60.50;;;22.85;;
52106;SDS011;38105;52.968;5.974;2023-02-28T03:57:38;59.60;;;22.67;;
52106;SDS011;38105;52.968;5.974;2023-02-28T04:00:34;58.92;;;22.65;;
52106;SDS011;38105;52.968;5.974;2023-02-28T04:03:03;58.47;;;22.33;;
52106;SDS011;38105;52.968;5.974;2023-02-28T04:05:30;58.60;;;22.45;;
52106;SDS011;38105;52.968;5.974;2023-02-28T04:08:04;56.55;;;22.17;;
52106;SDS011;38105;52.968;5.974;2023-02-28T04:10:31;55.85;;;22.05;;
52106;SDS011;38105;52.968;5.974;2023-02-28T04:12:56;54.20;;;21.80;;
52106;SDS011;38105;52.968;5.974;2023-02-28T04:15:22;52.88;;;21.58;;
52106;SDS011;38105;52.968;5.974;2023-02-28T04:17:49;51.42;;;21.30;;
52106;SDS011;38105;52.968;5.974;2023-02-28T04:20:15;49.03;;;20.92;;
52106;SDS011;38105;52.968;5.974;2023-02-28T04:22:41;47.67;;;20.58;;
52106;SDS011;38105;52.968;5.974;2023-02-28T04:25:07;47.42;;;20.63;;
52106;SDS011;38105;52.968;5.974;2023-02-28T04:27:33;41.88;;;19.05;;
52106;SDS011;38105;52.968;5.974;2023-02-28T04:29:59;41.00;;;19.08;;
52106;SDS011;38105;52.968;5.974;2023-02-28T04:32:24;39.72;;;18.88;;
52106;SDS011;38105;52.968;5.974;2023-02-28T04:34:50;38.95;;;18.65;;
52106;SDS011;38105;52.968;5.974;2023-02-28T04:37:16;37.80;;;18.35;;
52106;SDS011;38105;52.968;5.974;2023-02-28T04:39:42;37.10;;;18.23;;
52106;SDS011;38105;52.968;5.974;2023-02-28T04:42:08;35.88;;;17.88;;
52106;SDS011;38105;52.968;5.974;2023-02-28T04:44:34;33.88;;;17.42;;
52106;SDS011;38105;52.968;5.974;2023-02-28T04:46:59;34.40;;;17.63;;
52106;SDS011;38105;52.968;5.974;2023-02-28T04:49:25;34.60;;;17.70;;
52106;SDS011;38105;52.968;5.974;2023-02-28T04:51:51;33.20;;;17.45;;
52106;SDS011;38105;52.968;5.974;2023-02-28T04:54:17;30.08;;;16.77;;
52106;SDS011;38105;52.968;5.974;2023-02-28T04:56:43;19.50;;;14.10;;
52106;SDS011;38105;52.968;5.974;2023-02-28T04:59:09;24.67;;;15.50;;
52106;SDS011;38105;52.968;5.974;2023-02-28T05:01:35;32.90;;;17.38;;
52106;SDS011;38105;52.968;5.974;2023-02-28T05:04:02;33.33;;;17.60;;
52106;SDS011;38105;52.968;5.974;2023-02-28T05:06:30;33.90;;;17.75;;
52106;SDS011;38105;52.968;5.974;2023-02-28T05:08:57;35.35;;;17.92;;
52106;SDS011;38105;52.968;5.974;2023-02-28T05:11:24;35.92;;;18.23;;
52106;SDS011;38105;52.968;5.974;2023-02-28T05:13:53;34.28;;;17.85;;
52106;SDS011;38105;52.968;5.974;2023-02-28T05:16:20;35.08;;;17.92;;
52106;SDS011;38105;52.968;5.974;2023-02-28T05:18:46;36.10;;;18.15;;
52106;SDS011;38105;52.968;5.974;2023-02-28T05:21:48;36.35;;;18.23;;
52106;SDS011;38105;52.968;5.974;2023-02-28T05:24:11;39.05;;;18.40;;
52106;SDS011;38105;52.968;5.974;2023-02-28T05:26:38;32.00;;;17.40;;
52106;SDS011;38105;52.968;5.974;2023-02-28T05:29:05;22.30;;;14.75;;
52106;SDS011;38105;52.968;5.974;2023-02-28T05:31:31;30.00;;;16.85;;
52106;SDS011;38105;52.968;5.974;2023-02-28T05:33:57;30.42;;;17.20;;
52106;SDS011;38105;52.968;5.974;2023-02-28T05:36:23;18.95;;;14.10;;
52106;SDS011;38105;52.968;5.974;2023-02-28T05:38:49;19.70;;;14.25;;
52106;SDS011;38105;52.968;5.974;2023-02-28T05:41:16;24.80;;;15.65;;
52106;SDS011;38105;52.968;5.974;2023-02-28T05:43:44;23.58;;;15.25;;
52106;SDS011;38105;52.968;5.974;2023-02-28T05:46:10;19.42;;;14.02;;
52106;SDS011;38105;52.968;5.974;2023-02-28T05:48:37;18.60;;;13.90;;
52106;SDS011;38105;52.968;5.974;2023-02-28T05:51:04;19.00;;;14.05;;
52106;SDS011;38105;52.968;5.974;2023-02-28T05:53:31;18.42;;;14.00;;
52106;SDS011;38105;52.968;5.974;2023-02-28T05:55:57;18.65;;;14.20;;
52106;SDS011;38105;52.968;5.974;2023-02-28T05:58:23;18.63;;;14.18;;
52106;SDS011;38105;52.968;5.974;2023-02-28T06:00:54;18.40;;;14.00;;
52106;SDS011;38105;52.968;5.974;2023-02-28T06:03:19;18.63;;;14.20;;
52106;SDS011;38105;52.968;5.974;2023-02-28T06:05:45;18.55;;;14.15;;
52106;SDS011;38105;52.968;5.974;2023-02-28T06:08:11;18.88;;;14.27;;
52106;SDS011;38105;52.968;5.974;2023-02-28T06:10:36;18.55;;;14.35;;
52106;SDS011;38105;52.968;5.974;2023-02-28T06:13:03;18.00;;;14.00;;
52106;SDS011;38105;52.968;5.974;2023-02-28T06:15:29;18.17;;;14.00;;
52106;SDS011;38105;52.968;5.974;2023-02-28T06:17:55;18.10;;;14.00;;
52106;SDS011;38105;52.968;5.974;2023-02-28T06:20:21;18.38;;;14.10;;
52106;SDS011;38105;52.968;5.974;2023-02-28T06:22:48;17.85;;;14.00;;
52106;SDS011;38105;52.968;5.974;2023-02-28T06:25:15;17.80;;;13.95;;
52106;SDS011;38105;52.968;5.974;2023-02-28T06:27:41;17.92;;;13.90;;
52106;SDS011;38105;52.968;5.974;2023-02-28T06:30:08;16.70;;;13.55;;
52106;SDS011;38105;52.968;5.974;2023-02-28T06:32:35;16.90;;;13.60;;
52106;SDS011;38105;52.968;5.974;2023-02-28T06:35:01;17.00;;;13.60;;
52106;SDS011;38105;52.968;5.974;2023-02-28T06:37:27;16.48;;;13.30;;
52106;SDS011;38105;52.968;5.974;2023-02-28T06:39:53;16.63;;;13.40;;
52106;SDS011;38105;52.968;5.974;2023-02-28T06:42:21;16.85;;;13.45;;
52106;SDS011;38105;52.968;5.974;2023-02-28T06:44:50;16.83;;;13.40;;
52106;SDS011;38105;52.968;5.974;2023-02-28T06:47:16;16.33;;;13.38;;
52106;SDS011;38105;52.968;5.974;2023-02-28T06:49:41;16.95;;;13.52;;
52106;SDS011;38105;52.968;5.974;2023-02-28T06:52:07;16.90;;;13.60;;
52106;SDS011;38105;52.968;5.974;2023-02-28T06:54:35;17.30;;;13.82;;
52106;SDS011;38105;52.968;5.974;2023-02-28T06:57:02;16.80;;;13.52;;
52106;SDS011;38105;52.968;5.974;2023-02-28T06:59:27;17.58;;;13.95;;
52106;SDS011;38105;52.968;5.974;2023-02-28T07:01:53;17.38;;;13.73;;
52106;SDS011;38105;52.968;5.974;2023-02-28T07:04:20;17.70;;;13.98;;
52106;SDS011;38105;52.968;5.974;2023-02-28T07:06:46;16.83;;;13.55;;
52106;SDS011;38105;52.968;5.974;2023-02-28T07:09:12;17.50;;;13.68;;
52106;SDS011;38105;52.968;5.974;2023-02-28T07:11:39;17.77;;;13.82;;
52106;SDS011;38105;52.968;5.974;2023-02-28T07:14:05;17.65;;;13.80;;
52106;SDS011;38105;52.968;5.974;2023-02-28T07:16:31;3.28;;;2.80;;
52106;SDS011;38105;52.968;5.974;2023-02-28T07:18:57;0.10;;;0.10;;
52106;SDS011;38105;52.968;5.974;2023-02-28T07:21:23;0.10;;;0.10;;
52106;SDS011;38105;52.968;5.974;2023-02-28T09:55:51;19.75;;;15.63;;
52106;SDS011;38105;52.968;5.974;2023-02-28T09:58:23;15.52;;;12.02;;
52106;SDS011;38105;52.968;5.974;2023-02-28T10:00:57;16.08;;;11.52;;
52106;SDS011;38105;52.968;5.974;2023-02-28T10:06:07;13.63;;;10.93;;
52106;SDS011;38105;52.968;5.974;2023-02-28T10:08:45;13.18;;;10.35;;
52106;SDS011;38105;52.968;5.974;2023-02-28T10:11:21;10.38;;;7.95;;
52106;SDS011;38105;52.968;5.974;2023-02-28T10:19:06;11.27;;;7.90;;
52106;SDS011;38105;52.968;5.974;2023-02-28T10:26:59;7.63;;;5.57;;
52106;SDS011;38105;52.968;5.974;2023-02-28T10:29:27;8.60;;;6.00;;
52106;SDS011;38105;52.968;5.974;2023-02-28T10:31:58;7.65;;;5.60;;
52106;SDS011;38105;52.968;5.974;2023-02-28T10:34:26;10.77;;;6.97;;
52106;SDS011;38105;52.968;5.974;2023-02-28T10:36:52;7.68;;;5.00;;
52106;SDS011;38105;52.968;5.974;2023-02-28T10:39:33;10.70;;;6.05;;
52106;SDS011;38105;52.968;5.974;2023-02-28T10:42:18;11.30;;;6.88;;
52106;SDS011;38105;52.968;5.974;2023-02-28T10:45:04;9.80;;;6.60;;
52106;SDS011;38105;52.968;5.974;2023-02-28T10:47:51;10.02;;;7.00;;
52106;SDS011;38105;52.968;5.974;2023-02-28T10:50:29;12.45;;;8.27;;
52106;SDS011;38105;52.968;5.974;2023-02-28T10:53:00;16.55;;;8.70;;
52106;SDS011;38105;52.968;5.974;2023-02-28T10:55:42;16.08;;;8.65;;
52106;SDS011;38105;52.968;5.974;2023-02-28T10:58:20;12.13;;;7.60;;
52106;SDS011;38105;52.968;5.974;2023-02-28T11:00:50;13.50;;;6.57;;
52106;SDS011;38105;52.968;5.974;2023-02-28T11:03:31;10.35;;;6.07;;
52106;SDS011;38105;52.968;5.974;2023-02-28T11:06:04;9.70;;;5.75;;
52106;SDS011;38105;52.968;5.974;2023-02-28T11:08:32;10.48;;;6.78;;
52106;SDS011;38105;52.968;5.974;2023-02-28T11:10:58;13.73;;;7.00;;
52106;SDS011;38105;52.968;5.974;2023-02-28T11:13:30;9.70;;;6.18;;
52106;SDS011;38105;52.968;5.974;2023-02-28T11:15:59;13.88;;;6.93;;
52106;SDS011;38105;52.968;5.974;2023-02-28T11:18:30;13.02;;;6.15;;
52106;SDS011;38105;52.968;5.974;2023-02-28T11:21:02;7.85;;;4.63;;
52106;SDS011;38105;52.968;5.974;2023-02-28T11:23:29;6.40;;;3.35;;
52106;SDS011;38105;52.968;5.974;2023-02-28T11:25:59;5.68;;;3.00;;
52106;SDS011;38105;52.968;5.974;2023-02-28T11:31:01;4.18;;;2.65;;
52106;SDS011;38105;52.968;5.974;2023-02-28T11:36:10;6.20;;;3.13;;
52106;SDS011;38105;52.968;5.974;2023-02-28T11:38:38;4.85;;;3.05;;
52106;SDS011;38105;52.968;5.974;2023-02-28T11:46:46;6.63;;;3.08;;
52106;SDS011;38105;52.968;5.974;2023-02-28T11:52:26;6.85;;;3.38;;
52106;SDS011;38105;52.968;5.974;2023-02-28T11:55:27;5.93;;;3.28;;
52106;SDS011;38105;52.968;5.974;2023-02-28T12:14:44;6.20;;;3.70;;
52106;SDS011;38105;52.968;5.974;2023-02-28T12:22:46;5.15;;;2.80;;
52106;SDS011;38105;52.968;5.974;2023-02-28T12:25:42;4.70;;;3.17;;
52106;SDS011;38105;52.968;5.974;2023-02-28T12:28:29;4.28;;;2.95;;
52106;SDS011;38105;52.968;5.974;2023-02-28T12:34:03;5.57;;;2.90;;
52106;SDS011;38105;52.968;5.974;2023-02-28T12:36:56;4.13;;;2.72;;
52106;SDS011;38105;52.968;5.974;2023-02-28T12:39:26;3.60;;;2.72;;
52106;SDS011;38105;52.968;5.974;2023-02-28T12:41:59;4.68;;;3.00;;
52106;SDS011;38105;52.968;5.974;2023-02-28T12:44:30;5.25;;;2.50;;
52106;SDS011;38105;52.968;5.974;2023-02-28T12:47:09;3.78;;;1.90;;
52106;SDS011;38105;52.968;5.974;2023-02-28T12:49:42;2.97;;;2.05;;
52106;SDS011;38105;52.968;5.974;2023-02-28T12:55:35;3.17;;;2.40;;
52106;SDS011;38105;52.968;5.974;2023-02-28T12:58:14;4.03;;;2.65;;
52106;SDS011;38105;52.968;5.974;2023-02-28T13:01:04;3.97;;;2.65;;
52106;SDS011;38105;52.968;5.974;2023-02-28T13:09:25;5.43;;;2.75;;
52106;SDS011;38105;52.968;5.974;2023-02-28T13:11:51;4.05;;;3.08;;
52106;SDS011;38105;52.968;5.974;2023-02-28T13:14:23;5.80;;;2.63;;
52106;SDS011;38105;52.968;5.974;2023-02-28T13:19:40;5.05;;;2.72;;
52106;SDS011;38105;52.968;5.974;2023-02-28T13:22:16;3.97;;;2.55;;
52106;SDS011;38105;52.968;5.974;2023-02-28T13:25:03;5.45;;;2.67;;
52106;SDS011;38105;52.968;5.974;2023-02-28T13:27:52;4.75;;;2.83;;
52106;SDS011;38105;52.968;5.974;2023-02-28T13:33:24;6.13;;;2.50;;
52106;SDS011;38105;52.968;5.974;2023-02-28T13:36:07;3.55;;;2.55;;
52106;SDS011;38105;52.968;5.974;2023-02-28T13:38:42;4.67;;;2.87;;
52106;SDS011;38105;52.968;5.974;2023-02-28T13:52:08;5.80;;;2.90;;
52106;SDS011;38105;52.968;5.974;2023-02-28T14:05:47;3.88;;;2.72;;
52106;SDS011;38105;52.968;5.974;2023-02-28T14:08:52;6.90;;;3.15;;
52106;SDS011;38105;52.968;5.974;2023-02-28T14:11:38;6.15;;;2.72;;
52106;SDS011;38105;52.968;5.974;2023-02-28T14:14:05;4.72;;;2.70;;
52106;SDS011;38105;52.968;5.974;2023-02-28T14:16:41;4.30;;;3.10;;
52106;SDS011;38105;52.968;5.974;2023-02-28T14:19:22;4.15;;;2.60;;
52106;SDS011;38105;52.968;5.974;2023-02-28T14:25:04;17.75;;;9.50;;
52106;SDS011;38105;52.968;5.974;2023-02-28T14:36:35;5.53;;;3.25;;
52106;SDS011;38105;52.968;5.974;2023-02-28T14:39:07;6.55;;;3.70;;
52106;SDS011;38105;52.968;5.974;2023-02-28T14:41:41;6.00;;;3.17;;
52106;SDS011;38105;52.968;5.974;2023-02-28T14:44:13;7.50;;;3.10;;
52106;SDS011;38105;52.968;5.974;2023-02-28T14:46:40;4.53;;;3.15;;
52106;SDS011;38105;52.968;5.974;2023-02-28T14:49:12;6.15;;;3.10;;
52106;SDS011;38105;52.968;5.974;2023-02-28T14:51:47;4.72;;;2.83;;
52106;SDS011;38105;52.968;5.974;2023-02-28T14:54:16;3.67;;;2.63;;
52106;SDS011;38105;52.968;5.974;2023-02-28T14:56:48;4.55;;;2.83;;
52106;SDS011;38105;52.968;5.974;2023-02-28T14:59:23;4.32;;;2.80;;
52106;SDS011;38105;52.968;5.974;2023-02-28T15:01:51;9.02;;;3.30;;
52106;SDS011;38105;52.968;5.974;2023-02-28T15:04:25;4.47;;;3.00;;
52106;SDS011;38105;52.968;5.974;2023-02-28T15:07:10;5.45;;;2.92;;
52106;SDS011;38105;52.968;5.974;2023-02-28T15:09:38;8.60;;;2.83;;
52106;SDS011;38105;52.968;5.974;2023-02-28T15:12:04;5.80;;;2.97;;
52106;SDS011;38105;52.968;5.974;2023-02-28T15:14:30;6.18;;;3.67;;
52106;SDS011;38105;52.968;5.974;2023-02-28T15:17:01;4.38;;;3.10;;
52106;SDS011;38105;52.968;5.974;2023-02-28T15:19:34;7.53;;;3.83;;
52106;SDS011;38105;52.968;5.974;2023-02-28T15:22:12;10.43;;;4.13;;
52106;SDS011;38105;52.968;5.974;2023-02-28T15:24:48;5.22;;;2.90;;
52106;SDS011;38105;52.968;5.974;2023-02-28T15:29:51;14.13;;;8.15;;
52106;SDS011;38105;52.968;5.974;2023-02-28T15:34:46;6.57;;;3.78;;
52106;SDS011;38105;52.968;5.974;2023-02-28T15:39:55;7.00;;;4.55;;
52106;SDS011;38105;52.968;5.974;2023-02-28T15:42:30;5.30;;;3.70;;
52106;SDS011;38105;52.968;5.974;2023-02-28T15:44:56;5.13;;;3.58;;
52106;SDS011;38105;52.968;5.974;2023-02-28T15:47:23;5.50;;;3.10;;
52106;SDS011;38105;52.968;5.974;2023-02-28T15:49:55;4.85;;;3.55;;
52106;SDS011;38105;52.968;5.974;2023-02-28T15:52:28;5.38;;;3.72;;
52106;SDS011;38105;52.968;5.974;2023-02-28T15:54:59;4.10;;;3.40;;
52106;SDS011;38105;52.968;5.974;2023-02-28T15:57:46;6.55;;;3.75;;
52106;SDS011;38105;52.968;5.974;2023-02-28T16:00:19;5.35;;;3.20;;
52106;SDS011;38105;52.968;5.974;2023-02-28T16:02:46;6.88;;;3.47;;
52106;SDS011;38105;52.968;5.974;2023-02-28T16:05:19;6.65;;;3.33;;
52106;SDS011;38105;52.968;5.974;2023-02-28T16:07:56;8.32;;;3.72;;
52106;SDS011;38105;52.968;5.974;2023-02-28T16:10:43;4.93;;;3.10;;
52106;SDS011;38105;52.968;5.974;2023-02-28T16:13:08;8.43;;;4.35;;
52106;SDS011;38105;52.968;5.974;2023-02-28T16:15:41;6.82;;;3.60;;
52106;SDS011;38105;52.968;5.974;2023-02-28T16:18:09;10.52;;;3.97;;
52106;SDS011;38105;52.968;5.974;2023-02-28T16:20:37;6.80;;;4.22;;
52106;SDS011;38105;52.968;5.974;2023-02-28T16:23:03;6.95;;;4.47;;
52106;SDS011;38105;52.968;5.974;2023-02-28T16:25:33;8.52;;;4.70;;
52106;SDS011;38105;52.968;5.974;2023-02-28T16:28:00;10.40;;;6.38;;
52106;SDS011;38105;52.968;5.974;2023-02-28T16:30:27;9.45;;;6.55;;
52106;SDS011;38105;52.968;5.974;2023-02-28T16:32:56;7.93;;;5.70;;
52106;SDS011;38105;52.968;5.974;2023-02-28T16:35:22;8.73;;;4.65;;
52106;SDS011;38105;52.968;5.974;2023-02-28T16:37:50;6.85;;;3.70;;
52106;SDS011;38105;52.968;5.974;2023-02-28T16:40:17;7.07;;;4.35;;
52106;SDS011;38105;52.968;5.974;2023-02-28T16:42:46;7.30;;;5.53;;
52106;SDS011;38105;52.968;5.974;2023-02-28T16:45:23;8.70;;;6.03;;
52106;SDS011;38105;52.968;5.974;2023-02-28T16:47:50;8.95;;;7.25;;
52106;SDS011;38105;52.968;5.974;2023-02-28T16:50:17;9.27;;;6.13;;
52106;SDS011;38105;52.968;5.974;2023-02-28T16:52:45;14.13;;;9.30;;
52106;SDS011;38105;52.968;5.974;2023-02-28T16:55:11;51.75;;;28.27;;
52106;SDS011;38105;52.968;5.974;2023-02-28T16:57:36;52.53;;;31.13;;
52106;SDS011;38105;52.968;5.974;2023-02-28T17:00:03;37.35;;;21.98;;
52106;SDS011;38105;52.968;5.974;2023-02-28T17:02:32;13.48;;;9.02;;
52106;SDS011;38105;52.968;5.974;2023-02-28T17:04:59;16.17;;;11.15;;
52106;SDS011;38105;52.968;5.974;2023-02-28T17:07:24;14.75;;;8.68;;
52106;SDS011;38105;52.968;5.974;2023-02-28T17:09:50;7.85;;;5.15;;
52106;SDS011;38105;52.968;5.974;2023-02-28T17:12:16;7.10;;;4.88;;
52106;SDS011;38105;52.968;5.974;2023-02-28T17:14:41;37.47;;;22.65;;
52106;SDS011;38105;52.968;5.974;2023-02-28T17:17:09;19.02;;;13.18;;
52106;SDS011;38105;52.968;5.974;2023-02-28T17:19:41;13.35;;;9.82;;
52106;SDS011;38105;52.968;5.974;2023-02-28T17:22:09;11.60;;;9.40;;
52106;SDS011;38105;52.968;5.974;2023-02-28T17:24:35;11.30;;;8.32;;
52106;SDS011;38105;52.968;5.974;2023-02-28T17:27:01;10.73;;;7.05;;
52106;SDS011;38105;52.968;5.974;2023-02-28T17:29:27;8.45;;;6.80;;
52106;SDS011;38105;52.968;5.974;2023-02-28T17:31:53;8.93;;;7.10;;
52106;SDS011;38105;52.968;5.974;2023-02-28T17:34:18;12.38;;;6.97;;
52106;SDS011;38105;52.968;5.974;2023-02-28T17:36:45;10.45;;;7.30;;
52106;SDS011;38105;52.968;5.974;2023-02-28T17:39:13;11.10;;;6.75;;
52106;SDS011;38105;52.968;5.974;2023-02-28T17:41:41;8.82;;;6.72;;
52106;SDS011;38105;52.968;5.974;2023-02-28T17:44:07;10.52;;;6.10;;
52106;SDS011;38105;52.968;5.974;2023-02-28T17:46:33;8.48;;;6.78;;
52106;SDS011;38105;52.968;5.974;2023-02-28T17:48:59;8.80;;;6.45;;
52106;SDS011;38105;52.968;5.974;2023-02-28T17:51:25;9.38;;;6.68;;
52106;SDS011;38105;52.968;5.974;2023-02-28T17:53:51;9.48;;;7.20;;
52106;SDS011;38105;52.968;5.974;2023-02-28T17:56:21;8.55;;;6.88;;
52106;SDS011;38105;52.968;5.974;2023-02-28T17:58:48;24.52;;;12.27;;
52106;SDS011;38105;52.968;5.974;2023-02-28T18:01:16;11.50;;;9.00;;
52106;SDS011;38105;52.968;5.974;2023-02-28T18:03:41;13.25;;;10.18;;
52106;SDS011;38105;52.968;5.974;2023-02-28T18:06:11;16.90;;;10.88;;
52106;SDS011;38105;52.968;5.974;2023-02-28T18:08:43;10.57;;;7.78;;
52106;SDS011;38105;52.968;5.974;2023-02-28T18:11:09;11.25;;;7.75;;
52106;SDS011;38105;52.968;5.974;2023-02-28T18:13:45;11.68;;;8.35;;
52106;SDS011;38105;52.968;5.974;2023-02-28T18:16:19;11.38;;;8.88;;
52106;SDS011;38105;52.968;5.974;2023-02-28T18:18:48;13.60;;;9.77;;
52106;SDS011;38105;52.968;5.974;2023-02-28T18:21:16;17.05;;;11.23;;
52106;SDS011;38105;52.968;5.974;2023-02-28T18:23:42;16.92;;;12.02;;
52106;SDS011;38105;52.968;5.974;2023-02-28T18:26:15;17.45;;;12.63;;
52106;SDS011;38105;52.968;5.974;2023-02-28T18:28:42;15.60;;;11.90;;
52106;SDS011;38105;52.968;5.974;2023-02-28T18:31:09;14.85;;;11.55;;
52106;SDS011;38105;52.968;5.974;2023-02-28T18:33:40;15.50;;;11.07;;
52106;SDS011;38105;52.968;5.974;2023-02-28T18:36:06;15.90;;;11.00;;
52106;SDS011;38105;52.968;5.974;2023-02-28T18:38:33;10.88;;;9.23;;
52106;SDS011;38105;52.968;5.974;2023-02-28T18:40:59;6.65;;;5.95;;
52106;SDS011;38105;52.968;5.974;2023-02-28T18:43:28;8.88;;;6.25;;
52106;SDS011;38105;52.968;5.974;2023-02-28T18:45:54;9.52;;;7.45;;
52106;SDS011;38105;52.968;5.974;2023-02-28T18:48:20;9.88;;;7.90;;
52106;SDS011;38105;52.968;5.974;2023-02-28T18:50:47;13.02;;;8.40;;
52106;SDS011;38105;52.968;5.974;2023-02-28T18:53:14;12.25;;;8.30;;
52106;SDS011;38105;52.968;5.974;2023-02-28T18:55:40;9.82;;;7.78;;
52106;SDS011;38105;52.968;5.974;2023-02-28T18:58:05;10.15;;;8.10;;
52106;SDS011;38105;52.968;5.974;2023-02-28T19:00:31;11.75;;;8.02;;
52106;SDS011;38105;52.968;5.974;2023-02-28T19:02:57;11.52;;;8.20;;
52106;SDS011;38105;52.968;5.974;2023-02-28T19:05:23;9.05;;;6.55;;
52106;SDS011;38105;52.968;5.974;2023-02-28T19:07:49;7.60;;;6.20;;
52106;SDS011;38105;52.968;5.974;2023-02-28T19:10:14;9.05;;;5.70;;
52106;SDS011;38105;52.968;5.974;2023-02-28T19:12:41;7.95;;;6.50;;
52106;SDS011;38105;52.968;5.974;2023-02-28T19:15:07;7.80;;;6.60;;
52106;SDS011;38105;52.968;5.974;2023-02-28T19:17:34;10.07;;;7.80;;
52106;SDS011;38105;52.968;5.974;2023-02-28T19:20:02;12.75;;;8.30;;
52106;SDS011;38105;52.968;5.974;2023-02-28T19:22:28;10.85;;;7.25;;
52106;SDS011;38105;52.968;5.974;2023-02-28T19:24:54;11.60;;;8.27;;
52106;SDS011;38105;52.968;5.974;2023-02-28T19:27:19;14.07;;;10.50;;
52106;SDS011;38105;52.968;5.974;2023-02-28T19:29:48;14.18;;;9.98;;
52106;SDS011;38105;52.968;5.974;2023-02-28T19:32:16;13.60;;;10.20;;
52106;SDS011;38105;52.968;5.974;2023-02-28T19:34:42;14.65;;;10.13;;
52106;SDS011;38105;52.968;5.974;2023-02-28T19:37:08;14.60;;;10.73;;